Time;durP1;ratioP1;P1;durP2;ratioP2;P2;SDS_P1;SDS_P2;PMS_P1;PMS_P2;Temp;Humidity;BMP_temperature;BMP_pressure;BME280_temperature;BME280_humidity;BME280_pressure;Samples;Min_cycle;Max_cycle;Signal;HPM_P1;HPM_P2
2021/10/05 00:02:39;;;;;;;15.18;9.00;;;25.30;53.80;;;;;;6222460;27;83098;-68
2021/10/05 00:05:40;;;;;;;14.18;9.55;;;25.30;53.80;;;;;;6227793;28;82951;-66
2021/10/05 00:08:40;;;;;;;12.27;9.05;;;25.30;53.80;;;;;;6222053;28;82808;-67
2021/10/05 00:11:41;;;;;;;12.10;8.57;;;25.40;53.80;;;;;;6231872;28;80843;-66
2021/10/05 00:14:41;;;;;;;11.32;8.68;;;25.30;53.60;;;;;;6231477;27;80252;-67
2021/10/05 00:17:42;;;;;;;14.00;9.57;;;25.30;53.60;;;;;;6231378;28;80458;-67
2021/10/05 00:20:42;;;;;;;11.75;8.15;;;25.30;53.70;;;;;;6229959;27;80563;-68
2021/10/05 00:23:43;;;;;;;12.43;8.70;;;25.40;53.70;;;;;;6231470;28;81857;-67
2021/10/05 00:26:43;;;;;;;12.43;8.73;;;25.40;53.50;;;;;;6228931;27;80354;-67
2021/10/05 00:29:44;;;;;;;11.90;8.88;;;25.30;53.50;;;;;;6220567;28;83700;-67
2021/10/05 00:32:44;;;;;;;15.13;9.48;;;25.30;53.50;;;;;;6229581;27;80590;-67
2021/10/05 00:35:45;;;;;;;11.20;8.32;;;25.30;53.40;;;;;;6227546;27;80781;-67
2021/10/05 00:38:46;;;;;;;13.80;9.35;;;25.40;53.60;;;;;;6229975;27;80330;-67
2021/10/05 00:41:46;;;;;;;11.63;9.07;;;25.40;53.60;;;;;;6227525;28;81929;-67
2021/10/05 00:44:47;;;;;;;14.65;9.57;;;25.40;53.30;;;;;;6225392;28;81254;-67
2021/10/05 00:47:47;;;;;;;12.88;9.02;;;25.40;53.40;;;;;;6226420;27;80384;-66
2021/10/05 00:50:48;;;;;;;13.13;9.10;;;25.40;53.40;;;;;;6228758;27;80489;-66
2021/10/05 00:53:48;;;;;;;12.95;9.27;;;25.40;53.40;;;;;;6222770;28;80472;-66
2021/10/05 00:56:49;;;;;;;11.85;8.52;;;25.40;53.30;;;;;;6229144;27;80372;-67
2021/10/05 00:59:49;;;;;;;12.18;9.05;;;25.40;53.30;;;;;;6225879;28;80761;-67
2021/10/05 01:02:50;;;;;;;14.48;9.57;;;25.40;53.20;;;;;;6231821;28;81010;-67
2021/10/05 01:05:50;;;;;;;12.23;9.13;;;25.40;53.20;;;;;;6219598;28;80403;-67
2021/10/05 01:08:51;;;;;;;14.95;9.75;;;25.40;53.10;;;;;;6227614;27;80237;-66
2021/10/05 01:11:51;;;;;;;14.07;9.80;;;25.40;53.10;;;;;;6228928;27;81493;-66
2021/10/05 01:14:52;;;;;;;11.27;8.38;;;25.40;53.10;;;;;;6224072;28;80351;-66
2021/10/05 01:17:52;;;;;;;16.15;10.43;;;25.40;53.00;;;;;;6232619;27;80428;-66
2021/10/05 01:20:53;;;;;;;12.68;9.60;;;25.30;52.80;;;;;;6226664;28;83214;-67
2021/10/05 01:23:53;;;;;;;15.48;10.77;;;25.30;52.70;;;;;;6234503;27;83128;-68
2021/10/05 01:26:54;;;;;;;11.68;9.25;;;25.30;52.80;;;;;;6227628;27;82863;-67
2021/10/05 01:29:55;;;;;;;15.65;10.05;;;25.30;52.80;;;;;;6232749;28;83510;-66
2021/10/05 01:32:55;;;;;;;14.45;9.77;;;25.30;52.80;;;;;;6219772;28;83030;-66
2021/10/05 01:35:56;;;;;;;14.75;10.45;;;25.30;52.70;;;;;;6233010;27;83417;-66
2021/10/05 01:38:56;;;;;;;14.48;9.70;;;25.30;52.70;;;;;;6232042;28;82723;-66
2021/10/05 01:41:57;;;;;;;14.88;10.98;;;25.30;52.70;;;;;;6233601;28;81807;-66
2021/10/05 01:44:58;;;;;;;19.73;10.50;;;25.30;52.70;;;;;;6227523;27;84433;-66
2021/10/05 01:47:58;;;;;;;16.92;10.25;;;25.30;52.70;;;;;;6229922;27;83678;-67
2021/10/05 01:50:59;;;;;;;16.73;10.20;;;25.30;52.40;;;;;;6230242;27;83480;-67
2021/10/05 01:53:59;;;;;;;12.30;10.25;;;25.30;52.40;;;;;;6228398;28;83613;-67
2021/10/05 01:56:59;;;;;;;13.57;10.25;;;25.30;52.40;;;;;;6230957;27;83576;-67
2021/10/05 02:00:00;;;;;;;14.15;9.95;;;25.30;52.40;;;;;;6229068;28;84309;-67
2021/10/05 02:03:00;;;;;;;18.20;10.73;;;25.30;52.60;;;;;;6227069;28;83369;-68
2021/10/05 02:06:01;;;;;;;19.88;10.93;;;25.30;52.50;;;;;;6228142;27;83634;-67
2021/10/05 02:09:01;;;;;;;15.18;10.75;;;25.30;52.60;;;;;;6225723;28;83151;-67
2021/10/05 02:12:02;;;;;;;13.57;10.13;;;25.30;52.50;;;;;;6228689;27;83265;-67
2021/10/05 02:15:02;;;;;;;15.80;11.75;;;25.30;52.40;;;;;;6229120;27;83295;-67
2021/10/05 02:18:03;;;;;;;15.80;10.82;;;25.30;52.40;;;;;;6222047;28;83172;-68
2021/10/05 02:21:03;;;;;;;16.85;11.68;;;25.30;52.40;;;;;;6220531;28;83406;-68
2021/10/05 02:24:40;;;;;;;21.45;11.18;;;25.30;52.30;;;;;;6229984;28;84702;-67
2021/10/05 02:27:27;;;;;;;18.55;10.60;;;25.30;52.30;;;;;;6226222;28;83783;-67
2021/10/05 02:30:28;;;;;;;15.48;10.95;;;25.30;52.30;;;;;;6224566;27;83172;-67
2021/10/05 02:33:28;;;;;;;17.48;11.07;;;25.30;52.20;;;;;;6227087;28;84192;-66
2021/10/05 02:36:29;;;;;;;16.77;10.85;;;25.30;52.40;;;;;;6230001;27;83316;-67
2021/10/05 02:39:29;;;;;;;16.15;10.98;;;25.30;52.30;;;;;;6227353;28;84280;-66
2021/10/05 02:42:30;;;;;;;18.35;11.73;;;25.30;52.50;;;;;;6229062;27;83029;-67
2021/10/05 02:45:30;;;;;;;19.25;11.93;;;25.30;52.10;;;;;;6227341;27;82981;-67
2021/10/05 02:48:31;;;;;;;16.20;11.25;;;25.30;52.10;;;;;;6230547;28;83032;-67
2021/10/05 02:51:31;;;;;;;15.10;10.82;;;25.30;52.10;;;;;;6229669;27;83006;-67
2021/10/05 02:54:32;;;;;;;16.05;11.48;;;25.30;52.00;;;;;;6228889;27;83568;-67
2021/10/05 02:57:32;;;;;;;19.02;11.23;;;25.30;52.20;;;;;;6228927;27;83162;-67
2021/10/05 03:00:33;;;;;;;14.77;11.00;;;25.20;52.10;;;;;;6225916;27;83001;-67
2021/10/05 03:03:33;;;;;;;18.90;10.98;;;25.30;52.20;;;;;;6224096;27;83034;-66
2021/10/05 03:06:34;;;;;;;14.68;11.10;;;25.30;52.00;;;;;;6229128;27;83156;-66
2021/10/05 03:09:34;;;;;;;17.30;11.52;;;25.30;52.10;;;;;;6228529;27;83586;-67
2021/10/05 03:12:35;;;;;;;20.58;11.57;;;25.30;52.00;;;;;;6228204;27;83071;-67
2021/10/05 03:15:35;;;;;;;15.43;11.40;;;25.20;52.00;;;;;;6228310;27;83230;-66
2021/10/05 03:18:38;;;;;;;18.30;10.90;;;25.20;51.90;;;;;;6223871;27;82793;-66
2021/10/05 03:21:38;;;;;;;21.98;12.70;;;25.30;51.90;;;;;;6221661;27;83645;-66
2021/10/05 03:24:40;;;;;;;17.73;11.82;;;25.30;51.80;;;;;;6224442;28;83334;-67
2021/10/05 03:27:40;;;;;;;20.40;12.50;;;25.30;51.70;;;;;;6223440;28;87395;-66
2021/10/05 03:30:41;;;;;;;21.33;12.35;;;25.30;52.40;;;;;;6223151;28;83356;-66
2021/10/05 03:33:41;;;;;;;18.58;12.18;;;25.30;51.70;;;;;;6215901;28;83499;-66
2021/10/05 03:36:42;;;;;;;18.92;12.25;;;25.30;52.30;;;;;;6227368;27;83143;-66
2021/10/05 03:39:42;;;;;;;17.80;12.80;;;25.20;51.60;;;;;;6224520;27;83181;-67
2021/10/05 03:42:43;;;;;;;19.75;11.93;;;25.20;51.50;;;;;;6225430;28;84655;-65
2021/10/05 03:45:43;;;;;;;15.90;10.90;;;25.20;51.50;;;;;;6229054;28;84102;-66
2021/10/05 03:48:44;;;;;;;16.63;11.15;;;25.20;51.50;;;;;;6228649;27;84112;-65
2021/10/05 03:51:46;;;;;;;15.57;11.27;;;25.30;51.30;;;;;;6224364;28;82983;-65
2021/10/05 03:54:46;;;;;;;18.98;11.32;;;25.20;51.50;;;;;;6217501;28;84810;-66
2021/10/05 03:57:47;;;;;;;18.33;11.40;;;25.20;51.80;;;;;;6224799;28;83349;-66
2021/10/05 04:00:47;;;;;;;15.18;11.05;;;25.20;51.70;;;;;;6229786;27;83286;-66
2021/10/05 04:03:48;;;;;;;17.27;11.85;;;25.20;51.50;;;;;;6228267;28;83541;-65
2021/10/05 04:06:48;;;;;;;19.55;12.13;;;25.20;51.60;;;;;;6226170;28;86058;-65
2021/10/05 04:09:49;;;;;;;22.42;11.82;;;25.20;51.90;;;;;;6227778;28;82824;-65
2021/10/05 04:12:49;;;;;;;21.08;11.98;;;25.30;52.00;;;;;;6226764;27;85695;-65
2021/10/05 04:15:50;;;;;;;17.83;12.40;;;25.30;52.00;;;;;;6221786;28;83164;-65
2021/10/05 04:18:50;;;;;;;32.05;16.25;;;25.20;51.70;;;;;;6226605;27;82881;-65
2021/10/05 04:21:51;;;;;;;37.05;18.20;;;25.20;52.00;;;;;;6219385;28;84034;-66
2021/10/05 04:24:51;;;;;;;38.97;18.33;;;25.20;51.80;;;;;;6226968;28;83435;-65
2021/10/05 04:27:52;;;;;;;66.00;28.67;;;25.20;51.80;;;;;;6227647;27;84189;-66
2021/10/05 04:30:52;;;;;;;92.40;39.72;;;25.30;51.80;;;;;;6228289;28;83724;-66
2021/10/05 04:33:53;;;;;;;100.95;39.13;;;25.20;52.00;;;;;;6226099;28;83511;-66
2021/10/05 04:36:53;;;;;;;87.25;39.90;;;25.20;51.80;;;;;;6225761;27;84703;-66
2021/10/05 04:39:54;;;;;;;100.53;41.30;;;25.30;51.80;;;;;;6226055;28;83980;-66
2021/10/05 04:42:54;;;;;;;111.15;47.20;;;25.30;51.80;;;;;;6226037;28;86055;-67
2021/10/05 04:45:55;;;;;;;108.70;44.58;;;25.30;52.10;;;;;;6226204;27;83414;-65
2021/10/05 04:48:56;;;;;;;98.32;41.88;;;25.20;52.00;;;;;;6225941;28;83245;-65
2021/10/05 04:51:56;;;;;;;108.18;46.05;;;25.20;52.20;;;;;;6218665;27;83380;-65
2021/10/05 04:54:57;;;;;;;120.53;47.35;;;25.20;52.60;;;;;;6224122;28;86382;-66
2021/10/05 04:57:57;;;;;;;118.50;50.92;;;25.20;52.80;;;;;;6230498;28;83312;-66
2021/10/05 05:00:58;;;;;;;104.68;47.42;;;25.20;52.90;;;;;;6230065;27;83479;-66
2021/10/05 05:03:58;;;;;;;116.40;47.78;;;25.20;53.10;;;;;;6223277;27;84672;-64
2021/10/05 05:06:59;;;;;;;103.65;44.88;;;25.20;53.10;;;;;;6229871;27;83385;-64
2021/10/05 05:09:59;;;;;;;114.55;43.72;;;25.20;53.10;;;;;;6230081;27;83197;-65
2021/10/05 05:13:00;;;;;;;93.93;41.38;;;25.30;53.20;;;;;;6230698;27;83153;-65
2021/10/05 05:16:00;;;;;;;95.45;39.33;;;25.30;52.90;;;;;;6222167;28;83662;-65
2021/10/05 05:19:01;;;;;;;85.80;37.47;;;25.30;52.90;;;;;;6224663;27;83139;-65
2021/10/05 05:22:02;;;;;;;77.63;37.90;;;25.30;52.80;;;;;;6227087;27;84044;-65
2021/10/05 05:25:02;;;;;;;76.22;36.85;;;25.30;52.70;;;;;;6227465;28;83216;-65
2021/10/05 05:28:02;;;;;;;73.32;34.30;;;25.30;52.70;;;;;;6228018;27;83190;-67
2021/10/05 05:31:03;;;;;;;71.03;33.03;;;25.30;52.80;;;;;;6230865;27;84151;-65
2021/10/05 05:34:04;;;;;;;78.60;35.83;;;25.30;52.60;;;;;;6230688;27;82832;-68
2021/10/05 05:37:06;;;;;;;72.85;32.65;;;25.40;52.70;;;;;;6226424;27;84426;-68
2021/10/05 05:40:07;;;;;;;67.97;31.58;;;25.40;52.60;;;;;;6228229;28;84240;-66
2021/10/05 05:43:08;;;;;;;76.53;29.67;;;25.40;52.50;;;;;;6230982;27;83406;-65
2021/10/05 05:46:09;;;;;;;63.10;29.33;;;25.40;52.60;;;;;;6229417;27;82859;-65
2021/10/05 05:49:09;;;;;;;62.33;28.35;;;25.30;52.50;;;;;;6230370;27;83652;-66
2021/10/05 05:52:10;;;;;;;62.90;29.33;;;25.40;52.50;;;;;;6219865;28;84745;-66
2021/10/05 05:55:15;;;;;;;59.08;27.35;;;25.40;52.40;;;;;;6227441;27;83865;-66
2021/10/05 05:58:16;;;;;;;50.27;25.50;;;25.40;52.50;;;;;;6226054;28;84836;-65
2021/10/05 06:01:17;;;;;;;61.58;27.90;;;25.40;52.40;;;;;;6228444;27;83331;-65
2021/10/05 06:04:17;;;;;;;49.60;25.10;;;25.40;52.40;;;;;;6229540;28;83624;-65
2021/10/05 06:07:18;;;;;;;50.13;24.77;;;25.40;52.50;;;;;;6223644;28;83283;-65
2021/10/05 06:10:18;;;;;;;52.53;26.10;;;25.30;52.40;;;;;;6229064;27;84556;-65
2021/10/05 06:13:19;;;;;;;50.72;23.75;;;25.40;52.30;;;;;;6228742;27;82994;-65
2021/10/05 06:16:19;;;;;;;54.13;24.50;;;25.40;52.40;;;;;;6227681;27;83049;-65
2021/10/05 06:19:20;;;;;;;45.58;21.25;;;25.40;52.40;;;;;;6225164;28;83343;-65
2021/10/05 06:22:20;;;;;;;46.10;21.45;;;25.40;52.50;;;;;;6225518;28;90467;-65
2021/10/05 06:25:22;;;;;;;44.03;22.80;;;25.40;52.40;;;;;;6229029;27;83338;-65
2021/10/05 06:28:22;;;;;;;41.60;21.52;;;25.40;52.40;;;;;;6228856;27;83362;-65
2021/10/05 06:31:23;;;;;;;36.97;20.25;;;25.40;52.30;;;;;;6230202;27;83044;-64
2021/10/05 06:34:24;;;;;;;43.15;21.02;;;25.50;52.60;;;;;;6228366;28;83170;-66
2021/10/05 06:37:24;;;;;;;35.15;17.85;;;25.50;52.40;;;;;;6229101;28;83870;-66
2021/10/05 06:40:24;;;;;;;40.70;19.65;;;25.40;51.90;;;;;;6226722;27;83575;-65
2021/10/05 06:43:25;;;;;;;31.05;17.95;;;25.40;52.00;;;;;;6227488;27;83707;-64
2021/10/05 06:46:25;;;;;;;31.75;18.13;;;25.40;52.10;;;;;;6221583;28;87460;-65
2021/10/05 06:49:26;;;;;;;34.78;18.95;;;25.40;52.20;;;;;;6221290;28;84035;-67
2021/10/05 06:52:26;;;;;;;29.15;16.38;;;25.40;52.40;;;;;;6228374;27;83315;-66
2021/10/05 06:55:27;;;;;;;32.25;17.40;;;25.40;52.40;;;;;;6227406;27;83216;-66
2021/10/05 06:58:27;;;;;;;25.80;15.40;;;25.50;52.00;;;;;;6227564;27;84237;-65
2021/10/05 07:01:28;;;;;;;23.08;14.82;;;25.40;50.50;;;;;;6223565;27;83445;-66
2021/10/05 07:04:28;;;;;;;24.70;14.05;;;25.40;50.10;;;;;;6228548;27;83046;-65
2021/10/05 07:07:29;;;;;;;25.50;14.23;;;25.50;50.10;;;;;;6226911;27;83113;-65
2021/10/05 07:10:29;;;;;;;22.10;12.32;;;25.40;49.60;;;;;;6228619;28;83568;-65
2021/10/05 07:13:30;;;;;;;22.08;12.55;;;25.40;49.30;;;;;;6229101;27;83679;-65
2021/10/05 07:16:30;;;;;;;16.95;11.60;;;25.40;49.40;;;;;;6223930;28;82877;-65
2021/10/05 07:19:31;;;;;;;16.80;11.15;;;25.40;49.50;;;;;;6224397;27;83688;-65
2021/10/05 07:22:31;;;;;;;17.58;10.60;;;25.40;49.90;;;;;;6218119;28;82878;-65
2021/10/05 07:25:32;;;;;;;18.48;10.77;;;25.40;50.00;;;;;;6225311;27;83915;-66
2021/10/05 07:28:32;;;;;;;19.38;9.82;;;25.40;49.90;;;;;;6222222;27;83224;-67
2021/10/05 07:31:35;;;;;;;16.63;10.75;;;25.50;49.80;;;;;;6231928;28;83443;-64
2021/10/05 07:34:35;;;;;;;19.25;10.68;;;25.50;49.80;;;;;;6227399;27;86903;-64
2021/10/05 07:37:36;;;;;;;15.13;10.10;;;25.50;49.80;;;;;;6227275;27;82979;-65
2021/10/05 07:40:36;;;;;;;17.33;10.63;;;25.50;49.70;;;;;;6227119;28;83138;-65
2021/10/05 07:43:37;;;;;;;15.48;10.02;;;25.50;49.60;;;;;;6228326;27;83448;-66
2021/10/05 07:46:37;;;;;;;15.77;10.45;;;25.50;49.50;;;;;;6229009;27;83259;-64
2021/10/05 07:49:38;;;;;;;16.02;9.77;;;25.50;50.30;;;;;;6228689;28;84180;-65
2021/10/05 07:52:38;;;;;;;17.55;10.20;;;25.50;49.80;;;;;;6216775;27;82862;-65
2021/10/05 07:55:39;;;;;;;20.88;9.32;;;25.50;49.80;;;;;;6218208;28;83186;-65
2021/10/05 07:58:39;;;;;;;18.23;9.38;;;25.50;50.20;;;;;;6228689;28;83508;-65
2021/10/05 08:01:40;;;;;;;16.23;9.80;;;25.50;50.30;;;;;;6227913;27;80427;-65
2021/10/05 08:04:40;;;;;;;20.38;10.50;;;25.50;50.20;;;;;;6230298;28;80380;-66
2021/10/05 08:07:41;;;;;;;14.40;9.25;;;25.50;50.20;;;;;;6226670;27;83374;-65
2021/10/05 08:10:42;;;;;;;15.27;8.43;;;25.60;50.20;;;;;;6235384;27;84164;-66
2021/10/05 08:13:42;;;;;;;15.00;8.90;;;25.60;50.20;;;;;;6229309;28;80762;-65
2021/10/05 08:16:44;;;;;;;15.98;8.70;;;25.60;50.20;;;;;;6224385;28;80386;-65
2021/10/05 08:19:45;;;;;;;13.88;8.07;;;25.70;50.30;;;;;;6226648;27;80709;-66
2021/10/05 08:22:45;;;;;;;14.23;9.02;;;25.70;50.30;;;;;;6199866;28;82173;-63
2021/10/05 08:25:46;;;;;;;11.93;8.45;;;25.70;50.40;;;;;;6198418;28;81487;-64
2021/10/05 08:28:46;;;;;;;15.50;8.25;;;25.70;50.50;;;;;;6225371;27;82261;-65
2021/10/05 08:31:48;;;;;;;14.68;7.45;;;25.80;50.60;;;;;;6235869;27;83307;-64
2021/10/05 08:34:48;;;;;;;15.93;8.27;;;25.80;50.70;;;;;;6229340;27;81771;-65
2021/10/05 08:37:49;;;;;;;15.30;7.72;;;25.80;50.70;;;;;;6233413;27;81162;-65
2021/10/05 08:40:49;;;;;;;16.25;9.10;;;25.80;50.90;;;;;;6232834;27;80838;-65
2021/10/05 08:43:50;;;;;;;16.27;8.65;;;25.90;50.90;;;;;;6249508;27;80760;-66
2021/10/05 08:46:51;;;;;;;12.98;8.52;;;25.90;51.70;;;;;;6236547;27;80643;-65
2021/10/05 08:49:52;;;;;;;13.50;7.90;;;25.90;51.00;;;;;;6233888;27;80473;-65
2021/10/05 08:52:52;;;;;;;16.48;8.35;;;25.90;50.80;;;;;;6231777;27;80877;-66
2021/10/05 08:55:53;;;;;;;16.42;9.07;;;25.90;50.90;;;;;;6232530;28;80712;-65
2021/10/05 08:58:53;;;;;;;11.48;8.35;;;25.90;52.00;;;;;;6233183;27;80435;-66
2021/10/05 09:01:54;;;;;;;9.98;7.63;;;25.90;52.10;;;;;;6230737;28;80591;-65
2021/10/05 09:04:54;;;;;;;11.93;7.72;;;25.90;52.00;;;;;;6229208;28;80762;-65
2021/10/05 09:07:58;;;;;;;10.98;7.93;;;25.90;51.90;;;;;;6230935;27;80812;-65
2021/10/05 09:10:58;;;;;;;9.98;7.20;;;25.90;51.60;;;;;;6234167;27;81541;-65
2021/10/05 09:13:59;;;;;;;19.90;8.65;;;25.90;51.60;;;;;;6233034;27;81044;-65
2021/10/05 09:16:59;;;;;;;17.58;8.50;;;26.00;51.40;;;;;;6236469;28;80341;-64
2021/10/05 09:20:00;;;;;;;12.68;8.13;;;26.00;51.40;;;;;;6233263;27;80249;-65
2021/10/05 09:23:00;;;;;;;10.25;7.47;;;26.00;51.50;;;;;;6217860;28;87383;-65
2021/10/05 09:26:01;;;;;;;11.10;7.63;;;26.00;51.80;;;;;;6203721;28;80369;-65
2021/10/05 09:29:01;;;;;;;13.05;8.25;;;26.10;52.10;;;;;;6215693;28;81075;-65
2021/10/05 09:32:02;;;;;;;14.77;7.85;;;26.10;52.20;;;;;;6235318;28;80139;-65
2021/10/05 09:35:02;;;;;;;13.45;7.10;;;26.10;52.20;;;;;;6234552;27;81104;-65
2021/10/05 09:38:03;;;;;;;16.05;7.53;;;26.10;52.20;;;;;;6227574;27;82377;-64
2021/10/05 09:41:03;;;;;;;12.60;7.28;;;26.10;52.30;;;;;;6234379;27;81346;-63
2021/10/05 09:44:07;;;;;;;9.75;7.30;;;26.10;52.30;;;;;;6235347;27;80386;-64
2021/10/05 09:47:07;;;;;;;12.18;8.38;;;26.10;52.30;;;;;;6230327;27;80868;-64
2021/10/05 09:50:08;;;;;;;16.13;9.68;;;26.20;52.40;;;;;;6221086;28;81313;-66
2021/10/05 09:53:08;;;;;;;53.85;20.83;;;26.10;52.40;;;;;;6234065;27;80606;-64
2021/10/05 09:56:12;;;;;;;226.75;83.63;;;26.20;52.50;;;;;;6233300;27;83963;-64
2021/10/05 09:59:13;;;;;;;248.32;94.78;;;26.20;52.60;;;;;;6223629;28;84604;-65
2021/10/05 10:02:13;;;;;;;217.82;83.45;;;26.20;52.80;;;;;;6231357;27;83523;-64
2021/10/05 10:05:15;;;;;;;197.40;78.93;;;26.20;53.00;;;;;;6230028;27;83037;-64
2021/10/05 10:08:16;;;;;;;222.48;86.57;;;26.30;53.30;;;;;;6220356;28;84155;-64
2021/10/05 10:11:18;;;;;;;382.17;144.27;;;26.40;53.50;;;;;;6227064;28;83079;-63
2021/10/05 10:14:21;;;;;;;357.85;141.05;;;26.30;53.60;;;;;;6221735;27;85851;-65
2021/10/05 10:17:23;;;;;;;334.05;129.25;;;26.30;53.70;;;;;;6227671;27;86702;-65
2021/10/05 10:20:23;;;;;;;289.05;114.82;;;26.30;53.80;;;;;;6227011;27;85491;-65
2021/10/05 10:23:24;;;;;;;239.23;94.30;;;26.40;53.90;;;;;;6227474;27;86276;-65
2021/10/05 10:26:24;;;;;;;211.68;87.40;;;26.40;53.60;;;;;;6232331;27;85322;-65
2021/10/05 10:29:25;;;;;;;196.13;80.80;;;26.40;54.10;;;;;;6229863;28;83231;-66
2021/10/05 10:32:25;;;;;;;172.63;69.43;;;26.50;54.00;;;;;;6229219;28;83840;-65
2021/10/05 10:35:26;;;;;;;144.77;57.30;;;26.50;53.70;;;;;;6227719;27;85836;-65
2021/10/05 10:38:27;;;;;;;133.77;56.17;;;26.60;53.60;;;;;;6225416;28;83939;-64
2021/10/05 10:41:27;;;;;;;120.50;49.85;;;26.50;53.60;;;;;;6230126;27;83343;-65
2021/10/05 10:44:28;;;;;;;116.75;47.10;;;26.50;53.70;;;;;;6230729;27;83214;-65
2021/10/05 10:47:28;;;;;;;91.72;39.50;;;26.60;53.70;;;;;;6229270;27;82916;-65
2021/10/05 10:50:29;;;;;;;89.55;37.05;;;26.60;53.50;;;;;;6226930;28;83614;-66
2021/10/05 10:53:29;;;;;;;75.80;33.10;;;26.60;53.10;;;;;;6226735;28;83357;-66
2021/10/05 10:56:30;;;;;;;71.35;29.95;;;26.70;53.20;;;;;;6228928;27;86061;-66
2021/10/05 10:59:30;;;;;;;61.67;27.90;;;26.70;53.10;;;;;;6230485;27;87778;-66
2021/10/05 11:02:31;;;;;;;60.30;27.30;;;26.70;52.90;;;;;;6227214;27;83203;-66
2021/10/05 11:05:31;;;;;;;53.53;23.30;;;26.70;53.10;;;;;;6227787;27;83070;-67
2021/10/05 11:08:32;;;;;;;37.45;17.40;;;26.70;52.60;;;;;;6225086;28;84093;-67
2021/10/05 11:11:32;;;;;;;36.30;17.27;;;26.70;51.30;;;;;;6229277;27;83194;-66
2021/10/05 11:14:33;;;;;;;29.88;16.63;;;26.80;51.80;;;;;;6230649;27;84175;-66
2021/10/05 11:17:34;;;;;;;28.67;15.23;;;26.70;51.70;;;;;;6224329;28;82827;-67
2021/10/05 11:20:36;;;;;;;33.90;15.63;;;26.70;51.60;;;;;;6228919;27;83834;-66
2021/10/05 11:23:36;;;;;;;26.17;14.52;;;26.70;51.80;;;;;;6226461;28;83270;-64
2021/10/05 11:26:37;;;;;;;35.28;14.43;;;26.70;51.80;;;;;;6223277;27;82909;-65
2021/10/05 11:29:37;;;;;;;24.73;12.98;;;26.80;51.90;;;;;;6220127;27;84597;-65
2021/10/05 11:32:38;;;;;;;26.17;12.25;;;26.80;51.60;;;;;;6227379;27;83942;-64
2021/10/05 11:35:39;;;;;;;29.25;11.35;;;26.80;51.40;;;;;;6228938;28;82973;-66
2021/10/05 11:38:39;;;;;;;19.52;10.70;;;26.80;52.00;;;;;;6222139;28;82940;-65
2021/10/05 11:41:40;;;;;;;22.67;11.25;;;26.90;51.00;;;;;;6215477;28;83774;-65
2021/10/05 11:44:40;;;;;;;16.77;9.85;;;26.90;51.10;;;;;;6215916;27;82859;-65
2021/10/05 11:47:41;;;;;;;19.27;9.75;;;26.90;50.90;;;;;;6234030;28;82870;-64
2021/10/05 11:50:41;;;;;;;13.82;9.32;;;26.90;50.00;;;;;;6231576;27;81422;-65
2021/10/05 11:53:42;;;;;;;17.27;9.35;;;27.00;50.50;;;;;;6229665;27;82368;-66
2021/10/05 11:56:42;;;;;;;12.27;8.80;;;27.00;50.30;;;;;;6225112;28;80866;-68
2021/10/05 11:59:43;;;;;;;13.85;9.18;;;27.00;50.60;;;;;;6231063;27;80542;-65
2021/10/05 12:02:43;;;;;;;14.82;8.45;;;27.00;50.20;;;;;;6228511;27;81354;-66
2021/10/05 12:05:44;;;;;;;13.00;8.48;;;27.00;50.00;;;;;;6208262;28;81108;-66
2021/10/05 12:08:45;;;;;;;13.43;7.78;;;27.00;49.00;;;;;;6229100;27;81626;-67
2021/10/05 12:11:45;;;;;;;14.48;8.13;;;27.10;47.20;;;;;;6219241;27;81133;-66
2021/10/05 12:14:46;;;;;;;11.63;7.93;;;27.10;47.30;;;;;;6217577;28;82151;-66
2021/10/05 12:17:46;;;;;;;10.68;8.20;;;27.10;46.90;;;;;;6230519;28;80423;-66
2021/10/05 12:20:47;;;;;;;11.85;8.23;;;27.20;45.50;;;;;;6229788;27;80404;-66
2021/10/05 12:23:47;;;;;;;15.75;7.97;;;27.20;45.40;;;;;;6217872;27;80630;-66
2021/10/05 12:26:48;;;;;;;10.55;8.05;;;27.20;44.70;;;;;;6223093;28;80653;-65
2021/10/05 12:29:48;;;;;;;12.15;8.23;;;27.20;44.20;;;;;;6222073;27;81027;-66
2021/10/05 12:32:50;;;;;;;11.93;7.50;;;27.10;43.40;;;;;;6222610;28;81510;-65
2021/10/05 12:35:52;;;;;;;16.55;8.10;;;27.10;44.10;;;;;;6220399;28;81508;-65
2021/10/05 12:38:52;;;;;;;9.65;7.00;;;27.20;44.40;;;;;;6225199;28;81569;-66
2021/10/05 12:41:53;;;;;;;14.57;8.40;;;27.20;44.30;;;;;;6207781;28;83299;-66
2021/10/05 12:44:53;;;;;;;14.68;9.43;;;27.20;43.70;;;;;;6224944;27;80589;-66
2021/10/05 12:47:54;;;;;;;12.68;8.30;;;27.20;43.50;;;;;;6227395;27;80439;-66
2021/10/05 12:50:54;;;;;;;13.57;8.55;;;27.10;42.80;;;;;;6227162;28;81095;-66
2021/10/05 12:53:55;;;;;;;11.18;8.20;;;27.10;42.90;;;;;;6227513;28;80549;-67
2021/10/05 12:56:58;;;;;;;16.30;8.65;;;27.10;43.40;;;;;;6225590;28;87750;-67
2021/10/05 12:59:59;;;;;;;20.35;9.05;;;27.10;43.40;;;;;;6223358;27;80574;-67
2021/10/05 13:02:59;;;;;;;15.25;7.72;;;27.00;43.40;;;;;;6224594;27;80820;-67
2021/10/05 13:06:00;;;;;;;12.07;7.63;;;27.00;43.90;;;;;;6223940;28;81428;-66
2021/10/05 13:09:02;;;;;;;13.55;7.72;;;27.00;43.10;;;;;;6228964;28;81677;-66
2021/10/05 13:12:03;;;;;;;13.45;7.40;;;27.00;42.80;;;;;;6228286;28;81207;-66
2021/10/05 13:15:03;;;;;;;12.73;7.97;;;27.00;43.10;;;;;;6230958;27;80887;-66
2021/10/05 13:18:04;;;;;;;13.32;7.90;;;27.00;42.90;;;;;;6232046;27;80887;-66
2021/10/05 13:21:04;;;;;;;10.32;7.13;;;26.90;42.00;;;;;;6228195;28;81137;-66
2021/10/05 13:24:05;;;;;;;9.60;6.60;;;26.90;42.20;;;;;;6224860;27;81589;-66
2021/10/05 13:27:06;;;;;;;9.45;6.78;;;26.80;42.30;;;;;;6201194;27;81189;-66
2021/10/05 13:30:06;;;;;;;11.48;6.75;;;26.80;42.00;;;;;;6197359;28;81603;-66
2021/10/05 13:33:07;;;;;;;11.10;6.53;;;26.80;42.10;;;;;;6199910;28;80972;-66
2021/10/05 13:36:07;;;;;;;14.10;7.13;;;26.90;42.40;;;;;;6180412;28;81040;-66
2021/10/05 13:39:08;;;;;;;11.23;6.97;;;26.80;42.00;;;;;;6176961;28;80857;-68
2021/10/05 13:42:09;;;;;;;9.40;6.57;;;26.80;41.70;;;;;;6173965;28;80778;-65
2021/10/05 13:45:09;;;;;;;12.55;6.63;;;26.80;42.20;;;;;;6173787;28;80456;-67
2021/10/05 13:48:10;;;;;;;15.00;6.55;;;26.80;42.10;;;;;;6170001;28;80444;-66
2021/10/05 13:51:10;;;;;;;13.32;6.10;;;26.80;42.10;;;;;;6172197;28;82673;-65
2021/10/05 13:54:11;;;;;;;14.25;6.78;;;26.70;42.00;;;;;;6171707;28;80327;-66
2021/10/05 13:57:11;;;;;;;13.32;6.38;;;26.70;41.80;;;;;;6174893;28;80656;-65
2021/10/05 14:00:12;;;;;;;11.73;6.65;;;26.70;41.80;;;;;;6171593;28;80399;-64
2021/10/05 14:03:13;;;;;;;15.30;7.10;;;26.70;41.70;;;;;;6171590;28;81687;-67
2021/10/05 14:06:13;;;;;;;8.85;5.95;;;26.70;41.60;;;;;;6184431;28;81256;-65
2021/10/05 14:09:14;;;;;;;10.73;6.32;;;26.70;41.80;;;;;;6166850;28;80618;-66
2021/10/05 14:12:15;;;;;;;10.15;6.47;;;26.70;41.80;;;;;;6183042;28;80091;-66
2021/10/05 14:15:16;;;;;;;11.82;6.85;;;26.70;41.60;;;;;;6183069;28;80832;-66
2021/10/05 14:18:16;;;;;;;8.88;6.28;;;26.70;42.00;;;;;;6184189;28;81435;-66
2021/10/05 14:21:17;;;;;;;7.82;5.95;;;26.70;42.00;;;;;;6192334;28;80343;-66
2021/10/05 14:24:18;;;;;;;10.98;6.25;;;26.70;41.80;;;;;;6200964;28;81540;-66
2021/10/05 14:27:19;;;;;;;10.05;6.38;;;26.70;42.00;;;;;;6202419;28;81172;-66
2021/10/05 14:30:19;;;;;;;15.63;6.88;;;26.70;41.70;;;;;;6198507;28;80526;-67
2021/10/05 14:33:20;;;;;;;7.90;6.47;;;26.60;41.60;;;;;;6203822;28;81752;-66
2021/10/05 14:36:20;;;;;;;11.55;6.10;;;26.60;40.90;;;;;;6229609;28;80969;-66
2021/10/05 14:39:21;;;;;;;10.45;6.60;;;26.50;40.80;;;;;;6225244;28;80315;-67
2021/10/05 14:42:21;;;;;;;10.00;5.63;;;26.40;40.50;;;;;;6232287;28;81666;-66
2021/10/05 14:45:22;;;;;;;9.13;6.00;;;26.40;40.60;;;;;;6224865;28;81717;-66
2021/10/05 14:48:23;;;;;;;11.93;5.45;;;26.30;40.70;;;;;;6225002;28;81490;-68
2021/10/05 14:51:23;;;;;;;11.23;5.65;;;26.40;40.80;;;;;;6227093;28;83195;-66
2021/10/05 14:54:24;;;;;;;10.65;5.75;;;26.40;41.00;;;;;;6225015;28;82088;-66
2021/10/05 14:57:24;;;;;;;7.85;5.70;;;26.40;40.90;;;;;;6221585;28;80579;-66
2021/10/05 15:00:25;;;;;;;10.15;5.75;;;26.40;41.10;;;;;;6227235;27;80186;-67
2021/10/05 15:03:25;;;;;;;9.13;5.88;;;26.40;41.50;;;;;;6227103;28;81946;-67
2021/10/05 15:06:26;;;;;;;10.50;5.68;;;26.50;41.90;;;;;;6229999;27;80121;-66
2021/10/05 15:09:26;;;;;;;18.27;5.80;;;26.40;41.80;;;;;;6228511;27;80825;-67
2021/10/05 15:12:27;;;;;;;9.65;5.70;;;26.50;42.20;;;;;;6229537;27;81883;-65
2021/10/05 15:15:27;;;;;;;10.05;6.18;;;26.50;42.30;;;;;;6228269;27;80879;-67
2021/10/05 15:18:28;;;;;;;8.27;5.50;;;26.50;42.50;;;;;;6229036;28;80424;-66
2021/10/05 15:21:28;;;;;;;8.73;5.88;;;26.60;42.70;;;;;;6228823;28;80900;-67